createdAt,value
2022-10-24T00:03:23.522Z,13.59
2022-10-24T00:08:28.517Z,13.92
2022-10-24T00:13:32.013Z,13.95
2022-10-24T00:18:36.000Z,13.98
2022-10-24T00:23:40.927Z,14.06
2022-10-24T00:28:44.854Z,14.33
2022-10-24T00:33:49.218Z,14.33
2022-10-24T00:38:54.254Z,14.42
2022-10-24T00:44:19.826Z,14.69
2022-10-24T00:49:27.297Z,14.37
2022-10-24T00:54:32.192Z,13.87
2022-10-24T00:59:37.170Z,13.58
2022-10-24T01:04:40.738Z,13.33
2022-10-24T01:10:02.100Z,13.28
2022-10-24T01:15:14.237Z,13.65
2022-10-24T01:20:42.246Z,13.38
2022-10-24T01:25:56.566Z,13.70
2022-10-24T01:31:08.167Z,13.57
2022-10-24T01:36:16.466Z,13.67
2022-10-24T01:41:24.376Z,13.54
2022-10-24T01:46:33.518Z,13.76
2022-10-24T01:51:39.777Z,14.36
2022-10-24T01:56:43.257Z,14.34
2022-10-24T02:01:48.405Z,13.87
2022-10-24T02:06:52.684Z,13.50
2022-10-24T02:12:00.032Z,13.11
2022-10-24T02:17:05.317Z,12.89
2022-10-24T02:22:18.515Z,12.72
2022-10-24T02:27:27.075Z,13.53
2022-10-24T02:32:36.749Z,13.90
2022-10-24T02:37:44.832Z,14.19
2022-10-24T02:42:52.488Z,14.29
2022-10-24T02:48:02.513Z,14.17
2022-10-24T02:53:05.903Z,14.56
2022-10-24T02:58:09.776Z,14.52
2022-10-24T03:03:14.534Z,14.42
2022-10-24T03:08:17.971Z,14.48
2022-10-24T03:13:21.333Z,14.48
2022-10-24T03:18:26.412Z,14.62
2022-10-24T03:23:29.911Z,14.51
2022-10-24T03:28:33.344Z,14.52
2022-10-24T03:33:38.045Z,14.26
2022-10-24T03:38:41.393Z,14.61
2022-10-24T03:43:44.787Z,14.39
2022-10-24T03:48:49.569Z,14.41
2022-10-24T03:53:53.086Z,14.43
2022-10-24T03:58:56.493Z,14.48
2022-10-24T04:04:01.169Z,14.44
2022-10-24T04:09:04.718Z,14.32
2022-10-24T04:14:09.712Z,14.36
2022-10-24T04:19:17.557Z,14.51
2022-10-24T04:24:21.129Z,14.37
2022-10-24T04:29:24.934Z,14.64
2022-10-24T04:34:29.670Z,14.64
2022-10-24T04:39:33.074Z,14.65
2022-10-24T04:44:36.388Z,14.52
2022-10-24T04:49:41.211Z,14.53
2022-10-24T04:54:44.751Z,14.55
2022-10-24T04:59:48.162Z,14.29
2022-10-24T05:04:53.232Z,14.38
2022-10-24T05:09:56.655Z,14.20
2022-10-24T05:14:59.988Z,14.09
2022-10-24T05:20:06.263Z,14.17
2022-10-24T05:25:10.127Z,14.23
2022-10-24T05:30:14.400Z,14.28
2022-10-24T05:35:19.589Z,14.13
2022-10-24T05:40:23.021Z,14.31
2022-10-24T05:45:26.731Z,14.00
2022-10-24T05:50:31.802Z,13.97
2022-10-24T05:55:35.493Z,13.95
2022-10-24T06:00:38.893Z,13.82
2022-10-24T06:05:43.794Z,13.95
2022-10-24T06:10:48.764Z,13.91
2022-10-24T06:21:38.280Z,13.36
2022-10-24T06:26:41.782Z,13.38
2022-10-24T06:31:45.359Z,13.46
2022-10-24T06:36:50.245Z,13.14
2022-10-24T06:41:53.556Z,13.12
2022-10-24T06:46:56.943Z,13.15
2022-10-24T06:52:01.805Z,13.62
2022-10-24T06:57:05.272Z,13.91
2022-10-24T07:02:12.503Z,14.15
2022-10-24T07:07:21.655Z,14.19
2022-10-24T07:12:26.762Z,14.21
2022-10-24T07:17:30.479Z,14.10
2022-10-24T07:22:36.566Z,14.47
2022-10-24T07:27:40.782Z,14.55
2022-10-24T07:32:45.086Z,14.28
2022-10-24T07:37:52.175Z,14.61
2022-10-24T07:42:56.145Z,14.68
2022-10-24T07:48:00.851Z,14.86
2022-10-24T07:53:06.103Z,14.94
2022-10-24T07:58:10.426Z,14.88
2022-10-24T08:03:15.750Z,14.93
2022-10-24T08:08:35.090Z,15.07
2022-10-24T08:13:40.389Z,15.19
2022-10-24T08:18:44.257Z,15.39
2022-10-24T08:23:51.597Z,15.89
2022-10-24T08:28:56.289Z,16.14
2022-10-24T08:33:59.836Z,16.38
2022-10-24T08:39:05.230Z,16.54
2022-10-24T08:44:21.189Z,16.70
2022-10-24T08:49:31.399Z,16.69
2022-10-24T08:54:40.826Z,16.61
2022-10-24T08:59:44.518Z,16.84
2022-10-24T09:04:53.416Z,16.93
2022-10-24T09:10:11.643Z,17.01
2022-10-24T09:15:25.753Z,17.14
2022-10-24T09:20:33.498Z,16.92
2022-10-24T09:25:59.810Z,17.10
2022-10-24T09:31:06.318Z,17.17
2022-10-24T09:36:13.611Z,16.88
2022-10-24T09:41:22.729Z,17.07
2022-10-24T09:46:28.906Z,17.07
2022-10-24T09:51:34.498Z,16.93
2022-10-24T09:56:41.196Z,16.96
2022-10-24T10:01:45.681Z,17.27
2022-10-24T10:06:51.626Z,17.33
2022-10-24T10:12:03.170Z,17.46
2022-10-24T10:17:08.367Z,17.47
2022-10-24T10:22:24.780Z,17.15
2022-10-24T10:27:34.937Z,17.24
2022-10-24T10:32:47.755Z,16.99
2022-10-24T10:37:59.857Z,17.38
2022-10-24T10:43:18.112Z,17.23
2022-10-24T10:48:36.687Z,17.38
2022-10-24T10:53:46.048Z,17.82
2022-10-24T10:59:02.655Z,17.98
2022-10-24T11:04:15.937Z,18.23
2022-10-24T11:09:30.923Z,18.08
2022-10-24T11:14:40.357Z,17.80
2022-10-24T11:20:02.836Z,17.82
2022-10-24T11:25:18.096Z,17.58
2022-10-24T11:30:32.356Z,17.45
2022-10-24T11:35:42.990Z,17.77
2022-10-24T11:40:54.873Z,17.90
2022-10-24T11:46:13.002Z,17.65
2022-10-24T11:51:23.003Z,17.45
2022-10-24T11:56:33.531Z,17.33
2022-10-24T12:02:13.216Z,17.21
2022-10-24T12:07:54.512Z,17.25
2022-10-24T12:13:28.496Z,16.96
2022-10-24T12:18:35.666Z,17.13
2022-10-24T12:23:41.912Z,17.29
2022-10-24T12:28:55.140Z,17.01
2022-10-24T12:34:34.518Z,17.21
2022-10-24T12:39:44.383Z,17.26
2022-10-24T12:45:15.524Z,17.27
2022-10-24T12:51:01.724Z,17.46
2022-10-24T13:01:34.285Z,17.88
2022-10-24T13:06:50.999Z,17.73
2022-10-24T13:12:08.705Z,18.15
2022-10-24T13:17:20.708Z,17.97
2022-10-24T13:22:31.672Z,17.99
2022-10-24T13:27:36.670Z,17.93
2022-10-24T13:32:41.672Z,18.64
2022-10-24T13:37:49.649Z,18.55
2022-10-24T13:42:58.503Z,18.37
2022-10-24T13:48:06.910Z,18.03
2022-10-24T13:53:27.686Z,17.80
2022-10-24T13:58:44.308Z,18.02
2022-10-24T14:03:49.747Z,18.14
2022-10-24T14:09:05.592Z,18.16
2022-10-24T14:14:26.529Z,17.70
2022-10-24T14:19:32.537Z,17.90
2022-10-24T14:24:45.236Z,17.76
2022-10-24T14:29:56.722Z,17.51
2022-10-24T14:40:06.696Z,17.76
2022-10-24T14:45:25.915Z,17.66
2022-10-24T14:50:38.198Z,17.33
2022-10-24T14:55:41.965Z,17.44
2022-10-24T15:00:47.488Z,17.56
2022-10-24T15:05:55.755Z,17.39
2022-10-24T15:11:07.828Z,17.37
2022-10-24T15:16:23.200Z,17.27
2022-10-24T15:21:32.890Z,17.15
2022-10-24T15:26:39.352Z,17.08
2022-10-24T15:31:46.274Z,16.82
2022-10-24T15:36:52.017Z,16.93
2022-10-24T15:41:56.065Z,16.44
2022-10-24T15:47:01.215Z,16.52
2022-10-24T15:52:10.489Z,16.69
2022-10-24T15:57:15.375Z,16.68
2022-10-24T16:02:23.809Z,16.51
2022-10-24T16:07:27.207Z,16.48
2022-10-24T16:12:30.522Z,16.41
2022-10-24T16:17:35.732Z,16.56
2022-10-24T16:22:39.088Z,16.62
2022-10-24T16:27:42.558Z,16.48
2022-10-24T16:32:48.357Z,16.58
2022-10-24T16:37:52.412Z,16.50
2022-10-24T16:42:59.482Z,16.38
2022-10-24T16:48:05.147Z,16.23
2022-10-24T16:53:08.939Z,16.28
2022-10-24T16:58:13.524Z,16.35
2022-10-24T17:03:18.336Z,16.19
2022-10-24T17:08:24.163Z,16.32
2022-10-24T17:13:31.580Z,16.31
2022-10-24T17:18:38.667Z,16.18
2022-10-24T17:23:42.707Z,16.15
2022-10-24T17:28:47.432Z,16.25
2022-10-24T17:34:04.332Z,16.28
2022-10-24T17:39:14.852Z,16.17
2022-10-24T17:44:19.780Z,16.10
2022-10-24T17:49:25.155Z,16.10
2022-10-24T17:54:28.625Z,16.03
2022-10-24T17:59:32.464Z,16.15
2022-10-24T18:04:39.611Z,16.16
2022-10-24T18:09:43.178Z,16.06
2022-10-24T18:14:46.508Z,16.12
2022-10-24T18:19:51.500Z,16.13
2022-10-24T18:24:55.998Z,16.12
2022-10-24T18:29:59.995Z,16.08
2022-10-24T18:35:05.277Z,16.06
2022-10-24T18:40:11.421Z,15.99
2022-10-24T18:45:20.172Z,15.96
2022-10-24T18:50:31.744Z,15.96
2022-10-24T18:55:37.053Z,15.89
2022-10-24T19:00:43.658Z,15.90
2022-10-24T19:05:54.712Z,15.60
2022-10-24T19:11:00.734Z,15.70
2022-10-24T19:16:09.301Z,15.65
2022-10-24T19:21:16.334Z,15.71
2022-10-24T19:26:20.405Z,15.71
2022-10-24T19:31:24.260Z,15.48
2022-10-24T19:36:31.872Z,15.62
2022-10-24T19:41:35.660Z,15.64
2022-10-24T19:46:40.712Z,15.70
2022-10-24T19:51:49.151Z,15.46
2022-10-24T19:56:55.511Z,15.43
2022-10-24T20:01:59.966Z,15.25
2022-10-24T20:07:05.084Z,15.23
2022-10-24T20:12:12.029Z,15.09
2022-10-24T20:17:15.723Z,15.19
2022-10-24T20:22:20.974Z,15.26
2022-10-24T20:27:25.389Z,15.16
2022-10-24T20:32:29.094Z,15.24
2022-10-24T20:37:34.683Z,15.13
2022-10-24T20:42:38.070Z,15.13
2022-10-24T20:47:42.011Z,15.14
2022-10-24T20:52:48.656Z,15.08
2022-10-24T20:57:52.695Z,15.11
2022-10-24T21:02:59.759Z,15.31
2022-10-24T21:08:06.552Z,15.23
2022-10-24T21:13:10.010Z,15.19
2022-10-24T21:18:13.463Z,15.13
2022-10-24T21:23:19.393Z,15.13
2022-10-24T21:28:22.792Z,15.12
2022-10-24T21:33:26.287Z,15.12
2022-10-24T21:38:32.746Z,15.11
2022-10-24T21:43:38.847Z,15.02
2022-10-24T21:48:43.856Z,14.89
2022-10-24T21:53:50.788Z,14.96
2022-10-24T21:58:56.186Z,14.98
2022-10-24T22:04:00.816Z,14.85
2022-10-24T22:09:06.920Z,14.91
2022-10-24T22:14:13.363Z,14.86
2022-10-24T22:19:17.225Z,14.70
2022-10-24T22:24:24.337Z,14.78
2022-10-24T22:29:27.785Z,14.83
2022-10-24T22:34:31.805Z,14.85
2022-10-24T22:39:37.377Z,14.88
2022-10-24T22:44:41.195Z,14.67
2022-10-24T22:49:54.950Z,14.69
2022-10-24T22:55:00.985Z,14.59
2022-10-24T23:00:08.869Z,14.76
2022-10-24T23:05:20.666Z,14.78
2022-10-24T23:10:25.968Z,14.78
2022-10-24T23:15:30.210Z,14.60
2022-10-24T23:20:36.673Z,14.50
2022-10-24T23:25:43.415Z,14.25
2022-10-24T23:30:47.403Z,14.34
2022-10-24T23:35:55.770Z,14.15
2022-10-24T23:41:01.719Z,14.18
2022-10-24T23:46:13.463Z,13.91
2022-10-24T23:51:22.882Z,13.97
2022-10-24T23:56:29.838Z,13.73
